sensor_id;sensor_type;location;lat;lon;timestamp;temperature;humidity
34873;DHT22;21084;51.098;14.506;2023-04-01T00:01:43;8.90;99.90
34873;DHT22;21084;51.098;14.506;2023-04-01T00:04:11;8.90;99.90
34873;DHT22;21084;51.098;14.506;2023-04-01T00:06:40;8.90;99.90
34873;DHT22;21084;51.098;14.506;2023-04-01T00:09:09;8.90;99.90
34873;DHT22;21084;51.098;14.506;2023-04-01T00:11:39;8.90;99.90
34873;DHT22;21084;51.098;14.506;2023-04-01T00:14:08;8.90;99.90
34873;DHT22;21084;51.098;14.506;2023-04-01T00:16:37;8.90;99.90
34873;DHT22;21084;51.098;14.506;2023-04-01T00:19:06;8.90;99.90
34873;DHT22;21084;51.098;14.506;2023-04-01T00:21:35;8.90;99.90
34873;DHT22;21084;51.098;14.506;2023-04-01T00:24:04;8.90;99.90
34873;DHT22;21084;51.098;14.506;2023-04-01T00:26:33;9.00;99.90
34873;DHT22;21084;51.098;14.506;2023-04-01T00:29:03;9.00;99.90
34873;DHT22;21084;51.098;14.506;2023-04-01T00:31:32;9.00;99.90
34873;DHT22;21084;51.098;14.506;2023-04-01T00:34:01;9.00;99.90
34873;DHT22;21084;51.098;14.506;2023-04-01T00:36:30;9.10;99.90
34873;DHT22;21084;51.098;14.506;2023-04-01T00:38:59;9.00;99.90
34873;DHT22;21084;51.098;14.506;2023-04-01T00:41:27;9.10;99.90
34873;DHT22;21084;51.098;14.506;2023-04-01T00:44:14;9.10;99.90
34873;DHT22;21084;51.098;14.506;2023-04-01T00:46:43;9.10;99.90
34873;DHT22;21084;51.098;14.506;2023-04-01T00:49:12;9.10;99.90
34873;DHT22;21084;51.098;14.506;2023-04-01T00:51:42;9.10;99.90
34873;DHT22;21084;51.098;14.506;2023-04-01T00:54:12;9.10;99.90
34873;DHT22;21084;51.098;14.506;2023-04-01T00:56:44;9.10;99.90
34873;DHT22;21084;51.098;14.506;2023-04-01T00:59:21;9.10;99.90
34873;DHT22;21084;51.098;14.506;2023-04-01T01:01:51;9.10;99.90
34873;DHT22;21084;51.098;14.506;2023-04-01T01:04:25;9.10;99.90
34873;DHT22;21084;51.098;14.506;2023-04-01T01:07:00;9.10;99.90
34873;DHT22;21084;51.098;14.506;2023-04-01T01:09:41;9.10;99.90
34873;DHT22;21084;51.098;14.506;2023-04-01T01:12:13;9.10;99.90
34873;DHT22;21084;51.098;14.506;2023-04-01T01:14:55;9.10;99.90
34873;DHT22;21084;51.098;14.506;2023-04-01T01:17:35;9.10;99.90
34873;DHT22;21084;51.098;14.506;2023-04-01T01:20:29;9.10;99.90
34873;DHT22;21084;51.098;14.506;2023-04-01T01:23:23;9.10;99.90
34873;DHT22;21084;51.098;14.506;2023-04-01T01:26:12;9.00;99.90
34873;DHT22;21084;51.098;14.506;2023-04-01T01:28:50;9.00;99.90
34873;DHT22;21084;51.098;14.506;2023-04-01T01:31:30;9.00;99.90
34873;DHT22;21084;51.098;14.506;2023-04-01T01:34:17;8.90;99.90
34873;DHT22;21084;51.098;14.506;2023-04-01T01:36:59;8.90;99.90
34873;DHT22;21084;51.098;14.506;2023-04-01T01:39:36;8.80;99.90
34873;DHT22;21084;51.098;14.506;2023-04-01T01:42:13;8.80;99.90
34873;DHT22;21084;51.098;14.506;2023-04-01T01:44:46;8.80;99.90
34873;DHT22;21084;51.098;14.506;2023-04-01T01:47:19;8.70;99.90
34873;DHT22;21084;51.098;14.506;2023-04-01T01:49:51;8.80;99.90
34873;DHT22;21084;51.098;14.506;2023-04-01T01:52:27;8.80;99.90
34873;DHT22;21084;51.098;14.506;2023-04-01T01:54:58;8.80;99.90
34873;DHT22;21084;51.098;14.506;2023-04-01T01:57:29;8.70;99.90
34873;DHT22;21084;51.098;14.506;2023-04-01T02:00:04;8.70;99.90
34873;DHT22;21084;51.098;14.506;2023-04-01T02:02:41;8.70;99.90
34873;DHT22;21084;51.098;14.506;2023-04-01T02:05:14;8.70;99.90
34873;DHT22;21084;51.098;14.506;2023-04-01T02:07:49;8.70;99.90
34873;DHT22;21084;51.098;14.506;2023-04-01T02:10:23;8.70;99.90
34873;DHT22;21084;51.098;14.506;2023-04-01T02:12:57;8.70;99.90
34873;DHT22;21084;51.098;14.506;2023-04-01T02:15:28;8.70;99.90
34873;DHT22;21084;51.098;14.506;2023-04-01T02:18:01;8.70;99.90
34873;DHT22;21084;51.098;14.506;2023-04-01T02:20:31;8.70;99.90
34873;DHT22;21084;51.098;14.506;2023-04-01T02:23:02;8.70;99.90
34873;DHT22;21084;51.098;14.506;2023-04-01T02:25:34;8.80;99.90
34873;DHT22;21084;51.098;14.506;2023-04-01T02:28:05;8.80;99.90
34873;DHT22;21084;51.098;14.506;2023-04-01T02:30:37;8.80;99.90
34873;DHT22;21084;51.098;14.506;2023-04-01T02:33:07;8.80;99.90
34873;DHT22;21084;51.098;14.506;2023-04-01T02:35:37;8.80;99.90
34873;DHT22;21084;51.098;14.506;2023-04-01T02:38:07;8.80;99.90
34873;DHT22;21084;51.098;14.506;2023-04-01T02:40:44;8.80;99.90
34873;DHT22;21084;51.098;14.506;2023-04-01T02:43:13;8.80;99.90
34873;DHT22;21084;51.098;14.506;2023-04-01T02:45:43;8.80;99.90
34873;DHT22;21084;51.098;14.506;2023-04-01T02:48:12;8.80;99.90
34873;DHT22;21084;51.098;14.506;2023-04-01T02:50:41;8.80;99.90
34873;DHT22;21084;51.098;14.506;2023-04-01T02:53:11;8.80;99.90
34873;DHT22;21084;51.098;14.506;2023-04-01T02:55:40;8.80;99.90
34873;DHT22;21084;51.098;14.506;2023-04-01T02:58:09;8.80;99.90
34873;DHT22;21084;51.098;14.506;2023-04-01T03:00:38;8.80;99.90
34873;DHT22;21084;51.098;14.506;2023-04-01T03:03:07;8.80;99.90
34873;DHT22;21084;51.098;14.506;2023-04-01T03:05:35;8.80;99.90
34873;DHT22;21084;51.098;14.506;2023-04-01T03:08:04;8.90;99.90
34873;DHT22;21084;51.098;14.506;2023-04-01T03:10:35;8.80;99.90
34873;DHT22;21084;51.098;14.506;2023-04-01T03:13:03;8.80;99.90
34873;DHT22;21084;51.098;14.506;2023-04-01T03:15:33;8.80;99.90
34873;DHT22;21084;51.098;14.506;2023-04-01T03:18:02;8.80;99.90
34873;DHT22;21084;51.098;14.506;2023-04-01T03:20:32;8.80;99.90
34873;DHT22;21084;51.098;14.506;2023-04-01T03:23:00;8.80;99.90
34873;DHT22;21084;51.098;14.506;2023-04-01T03:25:29;8.80;99.90
34873;DHT22;21084;51.098;14.506;2023-04-01T03:28:00;8.80;99.90
34873;DHT22;21084;51.098;14.506;2023-04-01T03:30:29;8.80;99.90
34873;DHT22;21084;51.098;14.506;2023-04-01T03:32:58;8.80;99.90
34873;DHT22;21084;51.098;14.506;2023-04-01T03:35:27;8.80;99.90
34873;DHT22;21084;51.098;14.506;2023-04-01T03:37:57;8.80;99.90
34873;DHT22;21084;51.098;14.506;2023-04-01T03:40:25;8.80;99.90
34873;DHT22;21084;51.098;14.506;2023-04-01T03:42:54;8.80;99.90
34873;DHT22;21084;51.098;14.506;2023-04-01T03:45:25;8.80;99.90
34873;DHT22;21084;51.098;14.506;2023-04-01T03:47:53;8.80;99.90
34873;DHT22;21084;51.098;14.506;2023-04-01T03:50:22;8.80;99.90
34873;DHT22;21084;51.098;14.506;2023-04-01T03:52:51;8.80;99.90
34873;DHT22;21084;51.098;14.506;2023-04-01T03:55:19;8.80;99.90
34873;DHT22;21084;51.098;14.506;2023-04-01T03:57:48;8.80;99.90
34873;DHT22;21084;51.098;14.506;2023-04-01T04:00:17;8.80;99.90
34873;DHT22;21084;51.098;14.506;2023-04-01T04:02:48;8.80;99.90
34873;DHT22;21084;51.098;14.506;2023-04-01T04:05:17;8.80;99.90
34873;DHT22;21084;51.098;14.506;2023-04-01T04:07:46;8.80;99.90
34873;DHT22;21084;51.098;14.506;2023-04-01T04:10:14;8.80;99.90
34873;DHT22;21084;51.098;14.506;2023-04-01T04:12:43;8.80;99.90
34873;DHT22;21084;51.098;14.506;2023-04-01T04:15:12;8.80;99.90
34873;DHT22;21084;51.098;14.506;2023-04-01T04:17:41;8.80;99.90
34873;DHT22;21084;51.098;14.506;2023-04-01T04:20:11;8.80;99.90
34873;DHT22;21084;51.098;14.506;2023-04-01T04:22:40;8.80;99.90
34873;DHT22;21084;51.098;14.506;2023-04-01T04:25:09;8.80;99.90
34873;DHT22;21084;51.098;14.506;2023-04-01T04:27:38;8.80;99.90
34873;DHT22;21084;51.098;14.506;2023-04-01T04:30:07;8.80;99.90
34873;DHT22;21084;51.098;14.506;2023-04-01T04:32:36;8.70;99.90
34873;DHT22;21084;51.098;14.506;2023-04-01T04:35:06;8.70;99.90
34873;DHT22;21084;51.098;14.506;2023-04-01T04:37:36;8.60;99.90
34873;DHT22;21084;51.098;14.506;2023-04-01T04:40:06;8.60;99.90
34873;DHT22;21084;51.098;14.506;2023-04-01T04:42:35;8.60;99.90
34873;DHT22;21084;51.098;14.506;2023-04-01T04:45:05;8.70;99.90
34873;DHT22;21084;51.098;14.506;2023-04-01T04:47:34;8.70;99.90
34873;DHT22;21084;51.098;14.506;2023-04-01T04:50:02;8.70;99.90
34873;DHT22;21084;51.098;14.506;2023-04-01T04:52:31;8.70;99.90
34873;DHT22;21084;51.098;14.506;2023-04-01T04:55:04;8.80;99.90
34873;DHT22;21084;51.098;14.506;2023-04-01T04:57:33;8.70;99.90
34873;DHT22;21084;51.098;14.506;2023-04-01T05:00:04;8.70;99.90
34873;DHT22;21084;51.098;14.506;2023-04-01T05:02:33;8.80;99.90
34873;DHT22;21084;51.098;14.506;2023-04-01T05:05:03;8.80;99.90
34873;DHT22;21084;51.098;14.506;2023-04-01T05:07:33;8.80;99.90
34873;DHT22;21084;51.098;14.506;2023-04-01T05:10:04;8.70;99.90
34873;DHT22;21084;51.098;14.506;2023-04-01T05:12:34;8.80;99.90
34873;DHT22;21084;51.098;14.506;2023-04-01T05:15:06;8.80;99.90
34873;DHT22;21084;51.098;14.506;2023-04-01T05:17:35;8.90;99.90
34873;DHT22;21084;51.098;14.506;2023-04-01T05:20:05;8.90;99.90
34873;DHT22;21084;51.098;14.506;2023-04-01T05:22:34;8.90;99.90
34873;DHT22;21084;51.098;14.506;2023-04-01T05:25:05;8.90;99.90
34873;DHT22;21084;51.098;14.506;2023-04-01T05:27:34;9.00;99.90
34873;DHT22;21084;51.098;14.506;2023-04-01T05:30:04;8.90;99.90
34873;DHT22;21084;51.098;14.506;2023-04-01T05:32:33;8.90;99.90
34873;DHT22;21084;51.098;14.506;2023-04-01T05:35:02;8.90;99.90
34873;DHT22;21084;51.098;14.506;2023-04-01T05:37:31;9.00;99.90
34873;DHT22;21084;51.098;14.506;2023-04-01T05:40:01;9.00;99.90
34873;DHT22;21084;51.098;14.506;2023-04-01T05:42:32;9.00;99.90
34873;DHT22;21084;51.098;14.506;2023-04-01T05:45:05;9.00;99.90
34873;DHT22;21084;51.098;14.506;2023-04-01T05:47:34;9.00;99.90
34873;DHT22;21084;51.098;14.506;2023-04-01T05:50:03;9.00;99.90
34873;DHT22;21084;51.098;14.506;2023-04-01T05:52:32;9.00;99.90
34873;DHT22;21084;51.098;14.506;2023-04-01T05:55:00;9.00;99.90
34873;DHT22;21084;51.098;14.506;2023-04-01T05:57:29;9.00;99.90
34873;DHT22;21084;51.098;14.506;2023-04-01T05:59:59;9.00;99.90
34873;DHT22;21084;51.098;14.506;2023-04-01T06:02:28;8.90;99.90
34873;DHT22;21084;51.098;14.506;2023-04-01T06:05:03;8.90;99.90
34873;DHT22;21084;51.098;14.506;2023-04-01T06:07:39;8.90;99.90
34873;DHT22;21084;51.098;14.506;2023-04-01T06:10:12;9.00;99.90
34873;DHT22;21084;51.098;14.506;2023-04-01T06:12:53;9.00;99.90
34873;DHT22;21084;51.098;14.506;2023-04-01T06:15:29;9.00;99.90
34873;DHT22;21084;51.098;14.506;2023-04-01T06:21:34;8.90;99.90
34873;DHT22;21084;51.098;14.506;2023-04-01T06:24:17;8.90;99.90
34873;DHT22;21084;51.098;14.506;2023-04-01T06:26:52;8.90;99.90
34873;DHT22;21084;51.098;14.506;2023-04-01T06:29:43;9.00;99.90
34873;DHT22;21084;51.098;14.506;2023-04-01T06:35:25;9.20;99.90
34873;DHT22;21084;51.098;14.506;2023-04-01T06:38:16;9.20;99.90
34873;DHT22;21084;51.098;14.506;2023-04-01T06:43:58;9.30;99.90
34873;DHT22;21084;51.098;14.506;2023-04-01T06:46:34;9.20;99.90
34873;DHT22;21084;51.098;14.506;2023-04-01T06:49:17;9.30;99.90
34873;DHT22;21084;51.098;14.506;2023-04-01T06:51:54;9.30;99.90
34873;DHT22;21084;51.098;14.506;2023-04-01T06:54:30;9.30;99.90
34873;DHT22;21084;51.098;14.506;2023-04-01T06:57:03;9.60;99.90
34873;DHT22;21084;51.098;14.506;2023-04-01T06:59:35;9.80;99.90
34873;DHT22;21084;51.098;14.506;2023-04-01T07:02:16;9.80;99.90
34873;DHT22;21084;51.098;14.506;2023-04-01T07:04:51;9.90;99.90
34873;DHT22;21084;51.098;14.506;2023-04-01T07:07:29;10.00;99.90
34873;DHT22;21084;51.098;14.506;2023-04-01T07:10:00;9.90;99.90
34873;DHT22;21084;51.098;14.506;2023-04-01T07:12:37;9.80;99.90
34873;DHT22;21084;51.098;14.506;2023-04-01T07:15:17;9.90;99.90
34873;DHT22;21084;51.098;14.506;2023-04-01T07:17:50;9.80;99.90
34873;DHT22;21084;51.098;14.506;2023-04-01T07:20:24;9.80;99.90
34873;DHT22;21084;51.098;14.506;2023-04-01T07:22:57;9.90;99.90
34873;DHT22;21084;51.098;14.506;2023-04-01T07:25:29;9.80;99.90
34873;DHT22;21084;51.098;14.506;2023-04-01T07:28:02;9.80;99.90
34873;DHT22;21084;51.098;14.506;2023-04-01T07:30:51;9.90;99.90
34873;DHT22;21084;51.098;14.506;2023-04-01T07:33:24;9.80;99.90
34873;DHT22;21084;51.098;14.506;2023-04-01T07:36:03;9.80;99.90
34873;DHT22;21084;51.098;14.506;2023-04-01T07:38:37;9.80;99.90
34873;DHT22;21084;51.098;14.506;2023-04-01T07:41:11;10.00;99.90
34873;DHT22;21084;51.098;14.506;2023-04-01T07:43:51;10.00;99.90
34873;DHT22;21084;51.098;14.506;2023-04-01T07:46:33;10.20;99.90
34873;DHT22;21084;51.098;14.506;2023-04-01T07:49:10;10.20;99.90
34873;DHT22;21084;51.098;14.506;2023-04-01T07:51:48;10.20;99.90
34873;DHT22;21084;51.098;14.506;2023-04-01T07:54:31;10.50;99.90
34873;DHT22;21084;51.098;14.506;2023-04-01T07:57:03;10.80;99.90
34873;DHT22;21084;51.098;14.506;2023-04-01T07:59:42;10.50;99.90
34873;DHT22;21084;51.098;14.506;2023-04-01T08:02:24;10.50;99.90
34873;DHT22;21084;51.098;14.506;2023-04-01T08:05:03;10.40;99.90
34873;DHT22;21084;51.098;14.506;2023-04-01T08:07:40;10.50;99.90
34873;DHT22;21084;51.098;14.506;2023-04-01T08:10:18;10.50;99.90
34873;DHT22;21084;51.098;14.506;2023-04-01T08:12:54;10.40;99.90
34873;DHT22;21084;51.098;14.506;2023-04-01T08:15:28;10.50;99.90
34873;DHT22;21084;51.098;14.506;2023-04-01T08:18:05;10.50;99.90
34873;DHT22;21084;51.098;14.506;2023-04-01T08:20:41;10.60;99.90
34873;DHT22;21084;51.098;14.506;2023-04-01T08:23:15;10.50;99.90
34873;DHT22;21084;51.098;14.506;2023-04-01T08:25:50;10.70;99.90
34873;DHT22;21084;51.098;14.506;2023-04-01T08:28:24;10.70;99.90
34873;DHT22;21084;51.098;14.506;2023-04-01T08:31:00;10.90;99.90
34873;DHT22;21084;51.098;14.506;2023-04-01T08:33:31;10.70;99.90
34873;DHT22;21084;51.098;14.506;2023-04-01T08:36:03;10.70;99.90
34873;DHT22;21084;51.098;14.506;2023-04-01T08:38:39;10.90;99.90
34873;DHT22;21084;51.098;14.506;2023-04-01T08:41:33;10.70;99.90
34873;DHT22;21084;51.098;14.506;2023-04-01T08:44:23;10.60;99.90
34873;DHT22;21084;51.098;14.506;2023-04-01T08:50:19;10.40;99.90
34873;DHT22;21084;51.098;14.506;2023-04-01T08:53:00;10.30;99.90
34873;DHT22;21084;51.098;14.506;2023-04-01T08:55:49;10.20;99.90
34873;DHT22;21084;51.098;14.506;2023-04-01T08:58:46;10.20;99.90
34873;DHT22;21084;51.098;14.506;2023-04-01T09:01:39;10.00;99.90
34873;DHT22;21084;51.098;14.506;2023-04-01T09:04:25;9.90;99.90
34873;DHT22;21084;51.098;14.506;2023-04-01T09:07:06;10.00;99.90
34873;DHT22;21084;51.098;14.506;2023-04-01T09:10:02;10.10;99.90
34873;DHT22;21084;51.098;14.506;2023-04-01T09:12:46;10.10;99.90
34873;DHT22;21084;51.098;14.506;2023-04-01T09:15:27;10.20;99.90
34873;DHT22;21084;51.098;14.506;2023-04-01T09:18:12;10.40;99.90
34873;DHT22;21084;51.098;14.506;2023-04-01T09:20:52;10.80;99.90
34873;DHT22;21084;51.098;14.506;2023-04-01T09:23:36;10.80;99.90
34873;DHT22;21084;51.098;14.506;2023-04-01T09:26:16;11.10;99.90
34873;DHT22;21084;51.098;14.506;2023-04-01T09:28:56;11.20;99.90
34873;DHT22;21084;51.098;14.506;2023-04-01T09:31:43;11.20;99.90
34873;DHT22;21084;51.098;14.506;2023-04-01T09:34:30;11.20;99.90
34873;DHT22;21084;51.098;14.506;2023-04-01T09:37:20;11.20;99.90
34873;DHT22;21084;51.098;14.506;2023-04-01T09:40:09;11.10;99.90
34873;DHT22;21084;51.098;14.506;2023-04-01T09:42:45;11.00;99.90
34873;DHT22;21084;51.098;14.506;2023-04-01T09:45:35;10.90;99.90
34873;DHT22;21084;51.098;14.506;2023-04-01T09:48:16;10.80;99.90
34873;DHT22;21084;51.098;14.506;2023-04-01T09:50:55;10.80;99.90
34873;DHT22;21084;51.098;14.506;2023-04-01T09:53:42;10.80;99.90
34873;DHT22;21084;51.098;14.506;2023-04-01T10:00:21;10.90;99.90
34873;DHT22;21084;51.098;14.506;2023-04-01T10:13:11;10.70;99.90
34873;DHT22;21084;51.098;14.506;2023-04-01T10:16:03;10.40;99.90
34873;DHT22;21084;51.098;14.506;2023-04-01T10:18:56;10.40;99.90
34873;DHT22;21084;51.098;14.506;2023-04-01T10:21:57;10.50;99.90
34873;DHT22;21084;51.098;14.506;2023-04-01T10:31:14;10.80;99.90
34873;DHT22;21084;51.098;14.506;2023-04-01T10:36:52;11.50;99.90
34873;DHT22;21084;51.098;14.506;2023-04-01T10:39:51;11.80;99.90
34873;DHT22;21084;51.098;14.506;2023-04-01T10:45:54;13.00;99.90
34873;DHT22;21084;51.098;14.506;2023-04-01T10:54:45;12.90;99.90
34873;DHT22;21084;51.098;14.506;2023-04-01T10:57:31;12.60;99.90
34873;DHT22;21084;51.098;14.506;2023-04-01T11:00:24;12.10;99.90
34873;DHT22;21084;51.098;14.506;2023-04-01T11:03:37;11.60;99.90
34873;DHT22;21084;51.098;14.506;2023-04-01T11:06:30;11.50;99.90
34873;DHT22;21084;51.098;14.506;2023-04-01T11:16:18;11.90;99.90
34873;DHT22;21084;51.098;14.506;2023-04-01T11:22:24;12.10;99.90
34873;DHT22;21084;51.098;14.506;2023-04-01T11:25:16;12.10;99.90
34873;DHT22;21084;51.098;14.506;2023-04-01T11:28:05;11.70;99.90
34873;DHT22;21084;51.098;14.506;2023-04-01T11:30:49;11.70;99.90
34873;DHT22;21084;51.098;14.506;2023-04-01T11:33:26;11.90;99.90
34873;DHT22;21084;51.098;14.506;2023-04-01T11:36:15;12.20;99.90
34873;DHT22;21084;51.098;14.506;2023-04-01T11:39:03;12.40;99.90
34873;DHT22;21084;51.098;14.506;2023-04-01T11:41:40;12.40;99.90
34873;DHT22;21084;51.098;14.506;2023-04-01T11:44:19;12.50;99.90
34873;DHT22;21084;51.098;14.506;2023-04-01T11:47:04;12.80;99.90
34873;DHT22;21084;51.098;14.506;2023-04-01T11:49:44;12.80;99.90
34873;DHT22;21084;51.098;14.506;2023-04-01T11:52:30;12.90;99.90
34873;DHT22;21084;51.098;14.506;2023-04-01T11:55:10;12.30;99.90
34873;DHT22;21084;51.098;14.506;2023-04-01T11:57:54;12.20;99.90
34873;DHT22;21084;51.098;14.506;2023-04-01T12:00:41;12.70;99.90
34873;DHT22;21084;51.098;14.506;2023-04-01T12:03:27;12.70;99.90
34873;DHT22;21084;51.098;14.506;2023-04-01T12:06:07;12.70;99.90
34873;DHT22;21084;51.098;14.506;2023-04-01T12:08:45;12.30;99.90
34873;DHT22;21084;51.098;14.506;2023-04-01T12:11:25;12.80;99.90
34873;DHT22;21084;51.098;14.506;2023-04-01T12:14:05;13.20;99.90
34873;DHT22;21084;51.098;14.506;2023-04-01T12:16:50;13.20;99.90
34873;DHT22;21084;51.098;14.506;2023-04-01T12:19:26;13.50;99.90
34873;DHT22;21084;51.098;14.506;2023-04-01T12:22:08;13.40;99.90
34873;DHT22;21084;51.098;14.506;2023-04-01T12:24:46;13.40;99.90
34873;DHT22;21084;51.098;14.506;2023-04-01T12:33:42;12.90;99.90
34873;DHT22;21084;51.098;14.506;2023-04-01T12:36:26;12.20;99.90
34873;DHT22;21084;51.098;14.506;2023-04-01T12:39:21;12.00;99.90
34873;DHT22;21084;51.098;14.506;2023-04-01T12:41:54;12.20;99.90
34873;DHT22;21084;51.098;14.506;2023-04-01T12:44:37;11.70;99.90
34873;DHT22;21084;51.098;14.506;2023-04-01T12:50:23;12.50;99.90
34873;DHT22;21084;51.098;14.506;2023-04-01T12:53:06;13.00;99.90
34873;DHT22;21084;51.098;14.506;2023-04-01T12:55:42;13.80;99.90
34873;DHT22;21084;51.098;14.506;2023-04-01T12:58:38;14.10;99.90
34873;DHT22;21084;51.098;14.506;2023-04-01T13:01:22;14.40;99.90
34873;DHT22;21084;51.098;14.506;2023-04-01T13:09:57;14.50;99.90
34873;DHT22;21084;51.098;14.506;2023-04-01T13:12:44;13.70;99.90
34873;DHT22;21084;51.098;14.506;2023-04-01T13:15:25;14.10;99.90
34873;DHT22;21084;51.098;14.506;2023-04-01T13:18:01;14.60;99.90
34873;DHT22;21084;51.098;14.506;2023-04-01T13:20:43;15.20;99.90
34873;DHT22;21084;51.098;14.506;2023-04-01T13:23:28;14.60;99.90
34873;DHT22;21084;51.098;14.506;2023-04-01T13:26:06;13.90;99.90
34873;DHT22;21084;51.098;14.506;2023-04-01T13:28:49;13.70;99.90
34873;DHT22;21084;51.098;14.506;2023-04-01T13:31:33;13.80;99.90
34873;DHT22;21084;51.098;14.506;2023-04-01T13:34:21;13.70;99.90
34873;DHT22;21084;51.098;14.506;2023-04-01T13:37:01;13.40;99.90
34873;DHT22;21084;51.098;14.506;2023-04-01T13:39:40;14.40;99.90
34873;DHT22;21084;51.098;14.506;2023-04-01T13:42:16;14.90;99.90
34873;DHT22;21084;51.098;14.506;2023-04-01T13:44:51;15.90;99.90
34873;DHT22;21084;51.098;14.506;2023-04-01T13:47:52;16.50;99.90
34873;DHT22;21084;51.098;14.506;2023-04-01T13:53:54;17.70;99.90
34873;DHT22;21084;51.098;14.506;2023-04-01T13:56:34;17.10;99.90
34873;DHT22;21084;51.098;14.506;2023-04-01T14:02:29;17.50;99.90
34873;DHT22;21084;51.098;14.506;2023-04-01T14:05:12;18.20;99.90
34873;DHT22;21084;51.098;14.506;2023-04-01T14:08:14;17.50;99.90
34873;DHT22;21084;51.098;14.506;2023-04-01T14:10:50;17.00;99.90
34873;DHT22;21084;51.098;14.506;2023-04-01T14:13:30;16.50;99.90
34873;DHT22;21084;51.098;14.506;2023-04-01T14:16:20;16.30;99.90
34873;DHT22;21084;51.098;14.506;2023-04-01T14:19:03;15.70;99.90
34873;DHT22;21084;51.098;14.506;2023-04-01T14:21:41;15.10;99.90
34873;DHT22;21084;51.098;14.506;2023-04-01T14:24:41;14.50;99.90
34873;DHT22;21084;51.098;14.506;2023-04-01T14:27:38;14.40;99.90
34873;DHT22;21084;51.098;14.506;2023-04-01T14:33:16;14.00;99.90
34873;DHT22;21084;51.098;14.506;2023-04-01T14:36:00;13.70;99.90
34873;DHT22;21084;51.098;14.506;2023-04-01T14:38:39;13.60;99.90
34873;DHT22;21084;51.098;14.506;2023-04-01T14:41:25;13.70;99.90
34873;DHT22;21084;51.098;14.506;2023-04-01T14:44:24;14.00;99.90
34873;DHT22;21084;51.098;14.506;2023-04-01T14:50:05;14.50;99.90
34873;DHT22;21084;51.098;14.506;2023-04-01T14:52:38;14.70;99.90
34873;DHT22;21084;51.098;14.506;2023-04-01T14:55:21;14.40;99.90
34873;DHT22;21084;51.098;14.506;2023-04-01T14:57:59;14.30;99.90
34873;DHT22;21084;51.098;14.506;2023-04-01T15:00:58;14.20;99.90
34873;DHT22;21084;51.098;14.506;2023-04-01T15:03:30;14.00;99.90
34873;DHT22;21084;51.098;14.506;2023-04-01T15:06:38;14.20;99.90
34873;DHT22;21084;51.098;14.506;2023-04-01T15:09:17;13.90;99.90
34873;DHT22;21084;51.098;14.506;2023-04-01T15:12:02;13.70;99.90
34873;DHT22;21084;51.098;14.506;2023-04-01T15:14:46;14.40;99.90
34873;DHT22;21084;51.098;14.506;2023-04-01T15:17:45;14.80;99.90
34873;DHT22;21084;51.098;14.506;2023-04-01T15:20:25;15.20;99.90
34873;DHT22;21084;51.098;14.506;2023-04-01T15:23:04;15.00;99.90
34873;DHT22;21084;51.098;14.506;2023-04-01T15:25:48;14.80;99.90
34873;DHT22;21084;51.098;14.506;2023-04-01T15:28:36;14.30;99.90
34873;DHT22;21084;51.098;14.506;2023-04-01T15:31:11;13.80;99.90
34873;DHT22;21084;51.098;14.506;2023-04-01T15:36:45;13.10;99.90
34873;DHT22;21084;51.098;14.506;2023-04-01T15:39:21;13.00;99.90
34873;DHT22;21084;51.098;14.506;2023-04-01T15:42:06;12.90;99.90
34873;DHT22;21084;51.098;14.506;2023-04-01T15:44:48;12.60;99.90
34873;DHT22;21084;51.098;14.506;2023-04-01T15:47:39;12.70;99.90
34873;DHT22;21084;51.098;14.506;2023-04-01T15:50:44;12.60;99.90
34873;DHT22;21084;51.098;14.506;2023-04-01T15:53:38;12.70;99.90
34873;DHT22;21084;51.098;14.506;2023-04-01T15:56:30;12.70;99.90
34873;DHT22;21084;51.098;14.506;2023-04-01T15:59:19;12.50;99.90
34873;DHT22;21084;51.098;14.506;2023-04-01T16:01:56;12.40;99.90
34873;DHT22;21084;51.098;14.506;2023-04-01T16:04:37;12.20;99.90
34873;DHT22;21084;51.098;14.506;2023-04-01T16:07:14;12.20;99.90
34873;DHT22;21084;51.098;14.506;2023-04-01T16:09:56;12.30;99.90
34873;DHT22;21084;51.098;14.506;2023-04-01T16:12:40;12.20;99.90
34873;DHT22;21084;51.098;14.506;2023-04-01T16:15:24;12.20;99.90
34873;DHT22;21084;51.098;14.506;2023-04-01T16:18:05;12.10;99.90
34873;DHT22;21084;51.098;14.506;2023-04-01T16:20:43;11.90;99.90
34873;DHT22;21084;51.098;14.506;2023-04-01T16:23:18;11.80;99.90
34873;DHT22;21084;51.098;14.506;2023-04-01T16:25:57;11.80;99.90
34873;DHT22;21084;51.098;14.506;2023-04-01T16:28:31;11.80;99.90
34873;DHT22;21084;51.098;14.506;2023-04-01T16:31:06;11.70;99.90
34873;DHT22;21084;51.098;14.506;2023-04-01T16:33:41;11.70;99.90
34873;DHT22;21084;51.098;14.506;2023-04-01T16:36:22;11.70;99.90
34873;DHT22;21084;51.098;14.506;2023-04-01T16:38:55;11.70;99.90
34873;DHT22;21084;51.098;14.506;2023-04-01T16:41:32;11.80;99.90
34873;DHT22;21084;51.098;14.506;2023-04-01T16:44:13;11.70;99.90
34873;DHT22;21084;51.098;14.506;2023-04-01T16:46:49;11.70;99.90
34873;DHT22;21084;51.098;14.506;2023-04-01T16:49:30;11.70;99.90
34873;DHT22;21084;51.098;14.506;2023-04-01T16:52:13;11.70;99.90
34873;DHT22;21084;51.098;14.506;2023-04-01T16:54:47;11.60;99.90
34873;DHT22;21084;51.098;14.506;2023-04-01T16:57:23;11.50;99.90
34873;DHT22;21084;51.098;14.506;2023-04-01T16:59:57;11.40;99.90
34873;DHT22;21084;51.098;14.506;2023-04-01T17:02:33;11.30;99.90
34873;DHT22;21084;51.098;14.506;2023-04-01T17:05:05;11.20;99.90
34873;DHT22;21084;51.098;14.506;2023-04-01T17:07:44;11.20;99.90
34873;DHT22;21084;51.098;14.506;2023-04-01T17:10:32;11.20;99.90
34873;DHT22;21084;51.098;14.506;2023-04-01T17:13:18;11.00;99.90
34873;DHT22;21084;51.098;14.506;2023-04-01T17:16:00;11.00;99.90
34873;DHT22;21084;51.098;14.506;2023-04-01T17:18:38;10.90;99.90
34873;DHT22;21084;51.098;14.506;2023-04-01T17:21:17;10.90;99.90
34873;DHT22;21084;51.098;14.506;2023-04-01T17:23:51;10.90;99.90
34873;DHT22;21084;51.098;14.506;2023-04-01T17:26:33;10.80;99.90
34873;DHT22;21084;51.098;14.506;2023-04-01T17:29:12;10.80;99.90
34873;DHT22;21084;51.098;14.506;2023-04-01T17:31:52;10.70;99.90
34873;DHT22;21084;51.098;14.506;2023-04-01T17:34:38;10.70;99.90
34873;DHT22;21084;51.098;14.506;2023-04-01T17:40:20;10.40;99.90
34873;DHT22;21084;51.098;14.506;2023-04-01T17:42:59;10.40;99.90
34873;DHT22;21084;51.098;14.506;2023-04-01T17:45:40;10.30;99.90
34873;DHT22;21084;51.098;14.506;2023-04-01T17:48:18;10.20;99.90
34873;DHT22;21084;51.098;14.506;2023-04-01T17:51:02;10.20;99.90
34873;DHT22;21084;51.098;14.506;2023-04-01T17:53:43;10.10;99.90
34873;DHT22;21084;51.098;14.506;2023-04-01T17:56:21;10.10;99.90
34873;DHT22;21084;51.098;14.506;2023-04-01T17:59:03;10.10;99.90